createdAt,value
2023-01-22T00:01:10.331Z,4.43
2023-01-22T00:03:37.733Z,4.77
2023-01-22T00:06:05.384Z,4.57
2023-01-22T00:08:33.149Z,4.90
2023-01-22T00:11:00.425Z,3.97
2023-01-22T00:13:28.349Z,4.27
2023-01-22T00:15:58.316Z,4.53
2023-01-22T00:18:25.591Z,4.90
2023-01-22T00:20:54.448Z,5.40
2023-01-22T00:23:21.904Z,6.87
2023-01-22T00:25:49.239Z,5.63
2023-01-22T00:28:17.131Z,6.10
2023-01-22T00:30:44.548Z,6.83
2023-01-22T00:33:11.945Z,5.87
2023-01-22T00:35:39.916Z,7.03
2023-01-22T00:38:07.295Z,7.27
2023-01-22T00:40:34.554Z,7.00
2023-01-22T00:43:01.687Z,7.10
2023-01-22T00:45:28.909Z,6.37
2023-01-22T00:47:55.868Z,7.20
2023-01-22T00:50:22.999Z,6.60
2023-01-22T00:52:50.169Z,6.83
2023-01-22T00:55:17.271Z,7.00
2023-01-22T00:57:44.532Z,7.73
2023-01-22T01:00:18.425Z,5.33
2023-01-22T01:03:04.200Z,5.90
2023-01-22T01:05:31.296Z,6.00
2023-01-22T01:07:58.281Z,5.73
2023-01-22T01:10:25.328Z,6.80
2023-01-22T01:12:52.396Z,5.00
2023-01-22T01:15:19.490Z,5.80
2023-01-22T01:17:47.694Z,6.50
2023-01-22T01:20:14.737Z,4.87
2023-01-22T01:22:41.812Z,6.47
2023-01-22T01:25:08.821Z,6.47
2023-01-22T01:27:35.762Z,6.00
2023-01-22T01:30:02.980Z,5.20
2023-01-22T01:32:30.151Z,5.97
2023-01-22T01:34:57.100Z,4.23
2023-01-22T01:37:24.083Z,6.37
2023-01-22T01:39:52.761Z,5.77
2023-01-22T01:42:41.110Z,4.97
2023-01-22T01:45:37.899Z,5.80
2023-01-22T01:48:04.896Z,5.23
2023-01-22T01:50:32.121Z,4.40
2023-01-22T01:53:01.046Z,6.20
2023-01-22T01:55:31.851Z,6.03
2023-01-22T01:58:08.531Z,7.00
2023-01-22T02:00:38.200Z,5.53
2023-01-22T02:03:05.583Z,5.90
2023-01-22T02:05:37.775Z,4.93
2023-01-22T02:08:06.644Z,6.83
2023-01-22T02:10:33.688Z,5.60
2023-01-22T02:13:05.485Z,4.93
2023-01-22T02:15:32.545Z,6.83
2023-01-22T02:17:59.554Z,7.97
2023-01-22T02:20:26.649Z,6.03
2023-01-22T02:22:54.511Z,5.27
2023-01-22T02:25:22.685Z,5.53
2023-01-22T02:27:49.901Z,5.57
2023-01-22T02:30:17.924Z,6.67
2023-01-22T02:32:45.253Z,7.00
2023-01-22T02:35:12.711Z,8.37
2023-01-22T02:37:39.820Z,6.90
2023-01-22T02:40:07.360Z,6.17
2023-01-22T02:42:34.983Z,7.50
2023-01-22T02:45:02.011Z,8.17
2023-01-22T02:47:29.288Z,7.07
2023-01-22T02:49:56.400Z,8.63
2023-01-22T02:52:23.362Z,7.23
2023-01-22T02:54:50.347Z,8.10
2023-01-22T02:57:17.469Z,8.47
2023-01-22T02:59:44.607Z,7.20
2023-01-22T03:02:11.864Z,7.17
2023-01-22T03:04:39.018Z,7.93
2023-01-22T03:07:06.152Z,6.73
2023-01-22T03:09:33.210Z,6.43
2023-01-22T03:12:00.508Z,7.60
2023-01-22T03:14:47.687Z,5.40
2023-01-22T03:17:33.299Z,6.10
2023-01-22T03:20:19.120Z,6.67
2023-01-22T03:22:46.281Z,6.67
2023-01-22T03:25:13.343Z,7.23
2023-01-22T03:28:00.409Z,5.93
2023-01-22T03:30:28.543Z,7.33
2023-01-22T03:32:55.628Z,6.47
2023-01-22T03:35:22.798Z,6.37
2023-01-22T03:37:49.867Z,5.33
2023-01-22T03:40:17.437Z,5.63
2023-01-22T03:42:44.806Z,6.33
2023-01-22T03:45:12.046Z,6.33
2023-01-22T03:47:39.395Z,6.27
2023-01-22T03:50:07.139Z,6.33
2023-01-22T03:52:34.193Z,2.77
2023-01-22T03:55:01.244Z,6.63
2023-01-22T03:57:30.102Z,6.17
2023-01-22T03:59:57.124Z,7.40
2023-01-22T04:02:24.212Z,6.93
2023-01-22T04:04:51.405Z,6.30
2023-01-22T04:07:18.495Z,5.93
2023-01-22T04:09:45.720Z,6.00
2023-01-22T04:12:12.778Z,6.37
2023-01-22T04:14:39.783Z,6.47
2023-01-22T04:17:06.884Z,6.10
2023-01-22T04:19:33.992Z,7.80
2023-01-22T04:22:01.030Z,5.47
2023-01-22T04:24:28.033Z,6.37
2023-01-22T04:26:55.100Z,4.10
2023-01-22T04:29:22.176Z,4.63
2023-01-22T04:31:49.896Z,5.90
2023-01-22T04:34:17.133Z,4.80
2023-01-22T04:36:44.148Z,6.80
2023-01-22T04:39:11.223Z,6.40
2023-01-22T04:41:38.322Z,5.63
2023-01-22T04:44:05.429Z,6.53
2023-01-22T04:46:33.005Z,6.57
2023-01-22T04:49:01.459Z,6.17
2023-01-22T04:51:28.714Z,5.23
2023-01-22T04:53:55.872Z,5.57
2023-01-22T04:56:23.043Z,5.43
2023-01-22T04:58:50.639Z,5.90
2023-01-22T05:01:17.751Z,5.83
2023-01-22T05:03:45.119Z,4.33
2023-01-22T05:06:12.165Z,4.47
2023-01-22T05:08:39.267Z,4.33
2023-01-22T05:11:06.453Z,6.07
2023-01-22T05:13:33.390Z,5.63
2023-01-22T05:16:00.602Z,5.67
2023-01-22T05:18:28.871Z,4.70
2023-01-22T05:20:56.000Z,6.53
2023-01-22T05:23:23.229Z,6.27
2023-01-22T05:25:51.002Z,6.70
2023-01-22T05:28:18.046Z,6.47
2023-01-22T05:30:45.570Z,5.33
2023-01-22T05:33:12.616Z,6.47
2023-01-22T05:35:39.626Z,5.97
2023-01-22T05:38:06.688Z,6.67
2023-01-22T05:40:33.803Z,6.93
2023-01-22T05:43:03.630Z,7.30
2023-01-22T05:45:30.651Z,4.63
2023-01-22T05:47:58.593Z,3.60
2023-01-22T05:50:25.664Z,7.90
2023-01-22T05:52:55.682Z,7.70
2023-01-22T05:55:23.210Z,7.80
2023-01-22T05:57:50.545Z,8.20
2023-01-22T06:00:18.577Z,8.00
2023-01-22T06:02:46.225Z,6.37
2023-01-22T06:05:13.744Z,4.77
2023-01-22T06:07:40.831Z,5.73
2023-01-22T06:10:09.843Z,6.30
2023-01-22T06:12:36.921Z,6.90
2023-01-22T06:15:04.305Z,7.83
2023-01-22T06:17:31.448Z,7.67
2023-01-22T06:20:00.296Z,7.50
2023-01-22T06:22:30.463Z,7.30
2023-01-22T06:24:57.487Z,8.27
2023-01-22T06:27:24.534Z,4.80
2023-01-22T06:29:51.561Z,7.13
2023-01-22T06:32:18.815Z,8.00
2023-01-22T06:34:45.793Z,8.37
2023-01-22T06:37:12.791Z,9.33
2023-01-22T06:39:39.974Z,8.90
2023-01-22T06:42:06.957Z,8.07
2023-01-22T06:44:34.100Z,7.70
2023-01-22T06:47:01.154Z,8.40
2023-01-22T06:49:28.161Z,11.40
2023-01-22T06:51:55.128Z,9.30
2023-01-22T06:54:22.207Z,8.27
2023-01-22T06:56:49.340Z,9.00
2023-01-22T06:59:16.260Z,6.80
2023-01-22T07:01:43.409Z,9.47
2023-01-22T07:04:11.031Z,8.87
2023-01-22T07:06:37.990Z,9.00
2023-01-22T07:09:05.157Z,8.07
2023-01-22T07:11:32.184Z,8.50
2023-01-22T07:13:59.191Z,8.53
2023-01-22T07:16:26.583Z,5.73
2023-01-22T07:18:54.375Z,7.07
2023-01-22T07:21:21.498Z,6.93
2023-01-22T07:23:48.481Z,8.03
2023-01-22T07:26:16.151Z,7.87
2023-01-22T07:28:44.571Z,8.43
2023-01-22T07:31:13.064Z,8.43
2023-01-22T07:33:40.193Z,6.90
2023-01-22T07:36:07.508Z,6.73
2023-01-22T07:38:34.887Z,7.70
2023-01-22T07:41:04.372Z,8.10
2023-01-22T07:43:33.286Z,7.87
2023-01-22T07:46:06.196Z,8.20
2023-01-22T07:48:33.677Z,4.77
2023-01-22T07:51:06.085Z,6.77
2023-01-22T07:53:34.158Z,8.83
2023-01-22T07:56:06.130Z,7.30
2023-01-22T07:58:33.102Z,7.83
2023-01-22T08:01:00.335Z,7.43
2023-01-22T08:03:27.487Z,7.00
2023-01-22T08:05:54.534Z,5.30
2023-01-22T08:08:21.821Z,7.30
2023-01-22T08:10:48.931Z,7.00
2023-01-22T08:13:16.082Z,6.97
2023-01-22T08:15:44.034Z,6.93
2023-01-22T08:18:12.368Z,6.73
2023-01-22T08:20:39.350Z,7.20
2023-01-22T08:23:06.764Z,5.73
2023-01-22T08:25:33.752Z,7.13
2023-01-22T08:28:05.144Z,6.87
2023-01-22T08:30:45.442Z,7.27
2023-01-22T08:33:15.905Z,6.37
2023-01-22T08:35:43.543Z,6.50
2023-01-22T08:38:10.632Z,7.30
2023-01-22T08:40:38.157Z,6.67
2023-01-22T08:43:05.434Z,8.67
2023-01-22T08:45:32.550Z,8.37
2023-01-22T08:48:00.515Z,9.07
2023-01-22T08:50:29.502Z,7.57
2023-01-22T08:52:58.068Z,6.33
2023-01-22T08:55:26.224Z,7.23
2023-01-22T08:57:54.927Z,8.00
2023-01-22T09:00:23.087Z,8.27
2023-01-22T09:02:50.468Z,7.60
2023-01-22T09:05:17.641Z,8.33
2023-01-22T09:07:45.469Z,8.60
2023-01-22T09:10:13.122Z,7.73
2023-01-22T09:12:40.700Z,8.93
2023-01-22T09:15:08.493Z,8.37
2023-01-22T09:17:35.573Z,9.33
2023-01-22T09:20:02.928Z,7.57
2023-01-22T09:22:30.081Z,6.00
2023-01-22T09:24:57.312Z,9.10
2023-01-22T09:27:24.467Z,9.63
2023-01-22T09:29:51.533Z,8.03
2023-01-22T09:32:19.419Z,9.50
2023-01-22T09:34:46.499Z,8.10
2023-01-22T09:37:14.905Z,7.40
2023-01-22T09:39:44.524Z,7.53
2023-01-22T09:42:27.606Z,8.67
2023-01-22T09:45:00.854Z,8.47
2023-01-22T09:47:31.164Z,7.63
2023-01-22T09:50:04.981Z,4.73
2023-01-22T09:52:35.303Z,4.50
2023-01-22T09:55:02.487Z,6.03
2023-01-22T09:57:32.170Z,5.23
2023-01-22T09:59:59.966Z,5.93
2023-01-22T10:02:42.006Z,8.10
2023-01-22T10:05:20.200Z,8.07
2023-01-22T10:07:57.199Z,4.90
2023-01-22T10:10:27.792Z,9.70
2023-01-22T10:13:21.883Z,7.00
2023-01-22T10:15:55.414Z,8.83
2023-01-22T10:18:31.840Z,8.07
2023-01-22T10:21:03.616Z,9.03
2023-01-22T10:23:33.112Z,5.77
2023-01-22T10:26:25.521Z,8.30
2023-01-22T10:28:57.855Z,7.13
2023-01-22T10:31:27.270Z,4.57
2023-01-22T10:34:03.866Z,8.27
2023-01-22T10:36:31.650Z,8.50
2023-01-22T10:39:14.390Z,8.77
2023-01-22T10:41:42.584Z,9.10
2023-01-22T10:44:23.539Z,5.50
2023-01-22T10:46:52.222Z,8.50
2023-01-22T10:49:23.415Z,8.77
2023-01-22T10:51:56.082Z,8.97
2023-01-22T10:54:33.215Z,8.07
2023-01-22T10:57:19.134Z,8.47
2023-01-22T11:00:06.671Z,8.20
2023-01-22T11:02:36.092Z,5.50
2023-01-22T11:05:24.478Z,6.00
2023-01-22T11:07:56.589Z,6.60
2023-01-22T11:10:45.099Z,7.87
2023-01-22T11:13:24.258Z,5.97
2023-01-22T11:16:06.307Z,4.40
2023-01-22T11:18:40.010Z,6.10
2023-01-22T11:21:35.164Z,4.57
2023-01-22T11:24:04.468Z,4.50
2023-01-22T11:26:43.301Z,4.27
2023-01-22T11:29:19.425Z,4.10
2023-01-22T11:32:11.298Z,5.20
2023-01-22T11:34:53.228Z,4.60
2023-01-22T11:37:42.456Z,3.23
2023-01-22T11:40:30.943Z,4.73
2023-01-22T11:43:10.373Z,3.00
2023-01-22T11:45:47.919Z,2.90
2023-01-22T11:48:19.373Z,4.20
2023-01-22T11:51:11.213Z,4.20
2023-01-22T11:53:50.341Z,5.00
2023-01-22T11:56:39.224Z,3.27
2023-01-22T11:59:34.326Z,3.57
2023-01-22T12:02:20.375Z,4.93
2023-01-22T12:05:14.809Z,4.70
2023-01-22T12:08:01.282Z,2.13
2023-01-22T12:10:56.080Z,3.67
2023-01-22T12:13:46.495Z,3.13
2023-01-22T12:16:35.806Z,3.57
2023-01-22T12:19:24.406Z,3.83
2023-01-22T12:22:21.483Z,3.33
2023-01-22T12:24:55.537Z,3.07
2023-01-22T12:27:30.067Z,3.33
2023-01-22T12:30:18.856Z,3.63
2023-01-22T12:32:56.116Z,3.70
2023-01-22T12:35:27.041Z,4.77
2023-01-22T12:38:16.425Z,4.83
2023-01-22T12:41:02.462Z,2.67
2023-01-22T12:43:54.373Z,4.73
2023-01-22T12:46:46.114Z,5.43
2023-01-22T12:49:17.272Z,5.70
2023-01-22T12:51:47.335Z,4.97
2023-01-22T12:54:37.133Z,4.07
2023-01-22T12:57:17.275Z,4.03
2023-01-22T12:59:58.115Z,4.60
2023-01-22T13:02:35.691Z,3.07
2023-01-22T13:05:19.968Z,4.70
2023-01-22T13:07:47.888Z,4.73
2023-01-22T13:10:31.877Z,3.67
2023-01-22T13:13:46.736Z,5.03
2023-01-22T13:16:16.668Z,4.50
2023-01-22T13:18:59.760Z,2.57
2023-01-22T13:21:33.949Z,4.07
2023-01-22T13:24:04.949Z,3.23
2023-01-22T13:26:37.936Z,5.73
2023-01-22T13:29:27.129Z,2.10
2023-01-22T13:31:56.426Z,4.83
2023-01-22T13:34:24.061Z,5.37
2023-01-22T13:36:52.196Z,5.33
2023-01-22T13:39:24.665Z,5.17
2023-01-22T13:41:54.124Z,4.20
2023-01-22T13:44:34.846Z,4.13
2023-01-22T13:47:02.996Z,3.40
2023-01-22T13:49:33.387Z,2.10
2023-01-22T13:52:14.723Z,5.37
2023-01-22T13:54:49.674Z,2.10
2023-01-22T13:57:19.872Z,4.70
2023-01-22T13:59:55.016Z,3.20
2023-01-22T14:02:31.031Z,2.67
2023-01-22T14:04:58.578Z,3.73
2023-01-22T14:07:34.631Z,5.37
2023-01-22T14:10:22.152Z,3.37
2023-01-22T14:13:12.144Z,4.40
2023-01-22T14:15:41.185Z,5.47
2023-01-22T14:18:17.097Z,3.40
2023-01-22T14:20:46.406Z,3.57
2023-01-22T14:23:22.447Z,2.93
2023-01-22T14:25:57.222Z,4.17
2023-01-22T14:28:25.720Z,3.07
2023-01-22T14:30:53.031Z,3.37
2023-01-22T14:33:24.338Z,4.63
2023-01-22T14:35:52.795Z,4.33
2023-01-22T14:38:20.008Z,4.40
2023-01-22T14:40:47.441Z,6.27
2023-01-22T14:43:15.170Z,4.83
2023-01-22T14:45:44.280Z,5.60
2023-01-22T14:48:19.209Z,5.67
2023-01-22T14:50:46.282Z,6.63
2023-01-22T14:53:14.323Z,5.17
2023-01-22T14:55:42.790Z,5.47
2023-01-22T14:58:10.730Z,5.57
2023-01-22T15:00:39.128Z,5.27
2023-01-22T15:03:09.683Z,4.73
2023-01-22T15:05:36.690Z,4.23
2023-01-22T15:08:03.946Z,4.47
2023-01-22T15:10:30.944Z,4.20
2023-01-22T15:12:58.012Z,4.77
2023-01-22T15:15:28.820Z,4.57
2023-01-22T15:17:57.869Z,3.90
2023-01-22T15:20:25.435Z,3.80
2023-01-22T15:22:52.908Z,3.50
2023-01-22T15:25:29.439Z,4.00
2023-01-22T15:27:56.552Z,4.20
2023-01-22T15:30:23.974Z,4.50
2023-01-22T15:32:51.457Z,3.90
2023-01-22T15:35:20.980Z,4.50
2023-01-22T15:37:48.586Z,4.30
2023-01-22T15:40:15.906Z,4.30
2023-01-22T15:42:44.774Z,3.20
2023-01-22T15:45:20.393Z,4.07
2023-01-22T15:47:47.851Z,3.83
2023-01-22T15:50:20.433Z,3.03
2023-01-22T15:53:04.497Z,3.30
2023-01-22T15:55:34.212Z,3.00
2023-01-22T15:58:01.864Z,2.37
2023-01-22T16:00:34.032Z,2.93
2023-01-22T16:03:06.294Z,3.57
2023-01-22T16:05:50.509Z,4.70
2023-01-22T16:08:20.941Z,4.20
2023-01-22T16:10:51.142Z,4.60
2023-01-22T16:13:21.110Z,4.17
2023-01-22T16:16:30.566Z,4.50
2023-01-22T16:19:04.491Z,4.97
2023-01-22T16:21:40.969Z,4.53
2023-01-22T16:24:25.286Z,3.47
2023-01-22T16:27:07.087Z,5.27
2023-01-22T16:29:47.082Z,4.30
2023-01-22T16:32:40.265Z,4.47
2023-01-22T16:38:54.074Z,5.03
2023-01-22T16:42:12.139Z,2.93
2023-01-22T16:55:01.838Z,5.53
2023-01-22T17:01:45.990Z,3.67
2023-01-22T17:03:52.303Z,7.97
2023-01-22T17:06:46.005Z,7.87
2023-01-22T17:09:40.679Z,5.63
2023-01-22T17:12:14.397Z,5.83
2023-01-22T17:14:54.227Z,3.47
2023-01-22T17:18:00.501Z,5.90
2023-01-22T17:21:17.020Z,6.10
2023-01-22T17:27:59.137Z,6.83
2023-01-22T17:31:18.150Z,7.27
2023-01-22T17:34:48.259Z,8.57
2023-01-22T17:37:18.092Z,7.17
2023-01-22T17:39:51.368Z,7.97
2023-01-22T17:42:20.935Z,7.97
2023-01-22T17:44:55.800Z,8.10
2023-01-22T17:47:23.765Z,7.97
2023-01-22T17:49:50.940Z,8.47
2023-01-22T17:52:21.544Z,7.67
2023-01-22T17:54:48.727Z,8.10
2023-01-22T17:57:16.181Z,8.03
2023-01-22T17:59:43.348Z,7.53
2023-01-22T18:02:11.560Z,7.00
2023-01-22T18:04:38.717Z,25.03
2023-01-22T18:07:06.222Z,4.77
2023-01-22T18:09:33.456Z,4.23
2023-01-22T18:12:02.927Z,5.57
2023-01-22T18:14:34.137Z,6.93
2023-01-22T18:17:02.407Z,11.90
2023-01-22T18:19:29.610Z,5.80
2023-01-22T18:21:56.648Z,8.17
2023-01-22T18:24:24.335Z,6.27
2023-01-22T18:26:51.488Z,4.13
2023-01-22T18:29:19.212Z,5.83
2023-01-22T18:31:46.372Z,6.43
2023-01-22T18:34:16.181Z,3.80
2023-01-22T18:36:46.915Z,7.17
2023-01-22T18:39:17.918Z,8.60
2023-01-22T18:41:46.666Z,9.47
2023-01-22T18:44:16.363Z,7.70
2023-01-22T18:46:47.621Z,8.60
2023-01-22T18:49:19.028Z,8.70
2023-01-22T18:51:46.595Z,8.67
2023-01-22T18:54:13.948Z,6.53
2023-01-22T18:56:41.124Z,8.63
2023-01-22T18:59:08.638Z,8.80
2023-01-22T19:01:42.337Z,8.57
2023-01-22T19:04:17.976Z,8.20
2023-01-22T19:06:48.274Z,9.80
2023-01-22T19:09:15.753Z,7.97
2023-01-22T19:11:45.549Z,7.30
2023-01-22T19:14:16.374Z,9.50
2023-01-22T19:16:45.099Z,8.23
2023-01-22T19:19:13.724Z,9.60
2023-01-22T19:21:49.096Z,9.33
2023-01-22T19:24:18.770Z,8.03
2023-01-22T19:26:46.920Z,9.33
2023-01-22T19:29:19.585Z,6.63
2023-01-22T19:31:52.132Z,7.03
2023-01-22T19:34:24.983Z,6.80
2023-01-22T19:36:54.638Z,7.63
2023-01-22T19:39:22.645Z,11.03
2023-01-22T19:41:49.955Z,9.70
2023-01-22T19:44:17.628Z,5.60
2023-01-22T19:46:46.110Z,9.17
2023-01-22T19:49:13.666Z,9.23
2023-01-22T19:51:41.581Z,8.77
2023-01-22T19:54:09.018Z,8.67
2023-01-22T19:56:37.690Z,7.83
2023-01-22T19:59:17.182Z,8.90
2023-01-22T20:01:48.788Z,8.70
2023-01-22T20:04:29.915Z,9.13
2023-01-22T20:07:00.080Z,8.93
2023-01-22T20:09:28.151Z,7.07
2023-01-22T20:11:56.282Z,7.00
2023-01-22T20:14:26.266Z,8.30
2023-01-22T20:16:54.420Z,7.37
2023-01-22T20:19:21.435Z,7.73
2023-01-22T20:21:48.921Z,6.17
2023-01-22T20:24:16.706Z,6.80
2023-01-22T20:26:43.791Z,6.60
2023-01-22T20:29:12.898Z,5.77
2023-01-22T20:31:40.000Z,5.13
2023-01-22T20:34:09.846Z,5.90
2023-01-22T20:36:36.973Z,7.67
2023-01-22T20:39:04.620Z,4.43
2023-01-22T20:41:32.408Z,5.00
2023-01-22T20:43:59.643Z,4.27
2023-01-22T20:46:27.891Z,4.63
2023-01-22T20:48:58.053Z,5.17
2023-01-22T20:51:27.936Z,4.73
2023-01-22T20:53:56.515Z,5.00
2023-01-22T20:56:28.569Z,4.67
2023-01-22T20:59:00.772Z,4.10
2023-01-22T21:01:29.014Z,4.60
2023-01-22T21:03:57.893Z,4.07
2023-01-22T21:06:28.012Z,3.97
2023-01-22T21:08:56.455Z,3.30
2023-01-22T21:11:25.295Z,4.43
2023-01-22T21:13:53.253Z,3.80
2023-01-22T21:16:26.586Z,4.30
2023-01-22T21:19:02.411Z,2.77
2023-01-22T21:21:30.880Z,7.47
2023-01-22T21:23:58.818Z,4.07
2023-01-22T21:26:28.562Z,4.47
2023-01-22T21:29:04.841Z,4.83
2023-01-22T21:31:31.906Z,3.90
2023-01-22T21:34:04.335Z,4.40
2023-01-22T21:36:35.671Z,4.53
2023-01-22T21:39:04.993Z,4.10
2023-01-22T21:41:32.209Z,4.97
2023-01-22T21:44:18.615Z,4.57
2023-01-22T21:46:46.583Z,3.80
2023-01-22T21:49:21.865Z,4.60
2023-01-22T21:51:50.457Z,4.60
2023-01-22T21:54:23.248Z,4.07
2023-01-22T21:56:51.456Z,3.90
2023-01-22T21:59:18.613Z,4.70
2023-01-22T22:01:46.419Z,4.30
2023-01-22T22:04:15.215Z,5.10
2023-01-22T22:06:42.736Z,4.33
2023-01-22T22:09:16.275Z,4.90
2023-01-22T22:11:44.121Z,5.30
2023-01-22T22:14:20.695Z,4.50
2023-01-22T22:16:48.614Z,4.23
2023-01-22T22:19:16.578Z,4.77
2023-01-22T22:21:44.333Z,3.67
2023-01-22T22:24:12.471Z,5.07
2023-01-22T22:26:40.284Z,4.27
2023-01-22T22:29:09.172Z,4.57
2023-01-22T22:31:36.754Z,4.53
2023-01-22T22:34:05.972Z,4.40
2023-01-22T22:36:33.902Z,4.47
2023-01-22T22:39:02.565Z,3.80
2023-01-22T22:41:32.246Z,4.70
2023-01-22T22:44:00.540Z,4.30
2023-01-22T22:46:30.913Z,4.47
2023-01-22T22:49:00.424Z,4.20
2023-01-22T22:51:35.611Z,4.37
2023-01-22T22:54:08.004Z,4.47
2023-01-22T22:56:35.624Z,4.93
2023-01-22T22:59:03.871Z,4.30
2023-01-22T23:01:36.147Z,4.67
2023-01-22T23:04:06.665Z,4.67
2023-01-22T23:06:35.430Z,4.37
2023-01-22T23:09:06.445Z,4.63
2023-01-22T23:11:35.453Z,4.40
2023-01-22T23:14:03.729Z,5.00
2023-01-22T23:16:33.260Z,4.13
2023-01-22T23:19:02.586Z,4.53
2023-01-22T23:21:31.441Z,4.20
2023-01-22T23:23:59.693Z,4.53
2023-01-22T23:26:30.093Z,4.67
2023-01-22T23:29:00.770Z,5.07
2023-01-22T23:31:29.657Z,4.07
2023-01-22T23:34:01.438Z,4.20
2023-01-22T23:36:33.059Z,3.47
2023-01-22T23:39:01.609Z,4.73
2023-01-22T23:41:28.927Z,4.90
2023-01-22T23:43:56.143Z,4.27
2023-01-22T23:46:26.813Z,4.17
2023-01-22T23:48:58.297Z,4.70
2023-01-22T23:51:28.926Z,5.00
2023-01-22T23:53:55.986Z,4.47
2023-01-22T23:56:31.873Z,4.00
2023-01-22T23:58:59.641Z,4.00
